New Egypt, New Jersey
Current Conditions -  °F | °C
As of 7:58 AM on Saturday 20 Dec 2014 (Local Time) from KWRI Reporting Station
Overcast Overcast  
Wind Chill: 24°   Ceiling: 2500
Heat Index: 31°   Visibility: 10mi
Dew Point: 21°   Wind: 7mph
Humidity: 67%   Direction: 330°NNW
Pressure: 30.26"   Gusts: NA
Location:  40.07°N, 74.53°W
Report Text: KWRI 201258Z AUTO 33006KT 10SM OVC025 M01/M06 A3026 RMK AO2 SLP252 T10061060
Loading
Personal Weather Stations






























Interactive Weather Map New forecast layout! Learn more

10-Day Weather Forecast

Advertisements
Track Severe Weather on mobile